sensor_id;sensor_type;location;lat;lon;timestamp;temperature;humidity
75471;HTU21D;64051;46.320;48.028;2023-03-31T00:02:25;4.00;69.34
75471;HTU21D;64051;46.320;48.028;2023-03-31T00:04:54;4.00;69.13
75471;HTU21D;64051;46.320;48.028;2023-03-31T00:07:24;4.01;69.04
75471;HTU21D;64051;46.320;48.028;2023-03-31T00:09:50;4.00;69.13
75471;HTU21D;64051;46.320;48.028;2023-03-31T00:12:20;3.98;69.05
75471;HTU21D;64051;46.320;48.028;2023-03-31T00:14:49;3.98;69.13
75471;HTU21D;64051;46.320;48.028;2023-03-31T00:17:15;3.98;69.14
75471;HTU21D;64051;46.320;48.028;2023-03-31T00:19:41;3.97;69.16
75471;HTU21D;64051;46.320;48.028;2023-03-31T00:22:07;3.98;69.12
75471;HTU21D;64051;46.320;48.028;2023-03-31T00:24:34;3.98;69.00
75471;HTU21D;64051;46.320;48.028;2023-03-31T00:27:04;3.98;69.23
75471;HTU21D;64051;46.320;48.028;2023-03-31T00:29:30;3.99;68.96
75471;HTU21D;64051;46.320;48.028;2023-03-31T00:31:58;3.98;69.11
75471;HTU21D;64051;46.320;48.028;2023-03-31T00:34:25;4.01;69.10
75471;HTU21D;64051;46.320;48.028;2023-03-31T00:36:51;3.99;68.93
75471;HTU21D;64051;46.320;48.028;2023-03-31T00:39:21;3.98;69.21
75471;HTU21D;64051;46.320;48.028;2023-03-31T00:41:49;3.99;69.08
75471;HTU21D;64051;46.320;48.028;2023-03-31T00:44:16;4.00;69.16
75471;HTU21D;64051;46.320;48.028;2023-03-31T00:49:47;3.99;69.08
75471;HTU21D;64051;46.320;48.028;2023-03-31T00:52:20;3.99;68.88
75471;HTU21D;64051;46.320;48.028;2023-03-31T00:54:53;3.98;68.86
75471;HTU21D;64051;46.320;48.028;2023-03-31T00:57:21;3.95;68.89
75471;HTU21D;64051;46.320;48.028;2023-03-31T00:59:57;3.95;68.71
75471;HTU21D;64051;46.320;48.028;2023-03-31T01:02:24;3.95;68.90
75471;HTU21D;64051;46.320;48.028;2023-03-31T01:04:58;3.94;68.78
75471;HTU21D;64051;46.320;48.028;2023-03-31T01:07:42;3.94;68.58
75471;HTU21D;64051;46.320;48.028;2023-03-31T01:10:10;3.92;68.62
75471;HTU21D;64051;46.320;48.028;2023-03-31T01:12:39;3.92;68.59
75471;HTU21D;64051;46.320;48.028;2023-03-31T01:15:06;3.92;68.63
75471;HTU21D;64051;46.320;48.028;2023-03-31T01:17:33;3.93;68.46
75471;HTU21D;64051;46.320;48.028;2023-03-31T01:26:07;3.93;68.45
75471;HTU21D;64051;46.320;48.028;2023-03-31T01:41:07;3.84;68.26
75471;HTU21D;64051;46.320;48.028;2023-03-31T01:56:54;3.75;67.83
75471;HTU21D;64051;46.320;48.028;2023-03-31T01:59:37;3.73;67.86
75471;HTU21D;64051;46.320;48.028;2023-03-31T02:02:19;3.72;67.81
75471;HTU21D;64051;46.320;48.028;2023-03-31T02:04:58;3.70;67.80
75471;HTU21D;64051;46.320;48.028;2023-03-31T02:07:34;3.71;67.77
75471;HTU21D;64051;46.320;48.028;2023-03-31T02:10:05;3.69;67.73
75471;HTU21D;64051;46.320;48.028;2023-03-31T02:12:33;3.69;67.75
75471;HTU21D;64051;46.320;48.028;2023-03-31T02:15:02;3.68;67.63
75471;HTU21D;64051;46.320;48.028;2023-03-31T02:17:29;3.68;67.54
75471;HTU21D;64051;46.320;48.028;2023-03-31T02:19:58;3.67;67.47
75471;HTU21D;64051;46.320;48.028;2023-03-31T02:22:29;3.67;67.46
75471;HTU21D;64051;46.320;48.028;2023-03-31T02:24:57;3.64;67.40
75471;HTU21D;64051;46.320;48.028;2023-03-31T02:27:29;3.63;67.51
75471;HTU21D;64051;46.320;48.028;2023-03-31T02:29:56;3.61;67.52
75471;HTU21D;64051;46.320;48.028;2023-03-31T02:32:25;3.62;67.37
75471;HTU21D;64051;46.320;48.028;2023-03-31T02:34:53;3.62;67.29
75471;HTU21D;64051;46.320;48.028;2023-03-31T02:37:20;3.59;67.24
75471;HTU21D;64051;46.320;48.028;2023-03-31T02:39:48;3.57;67.21
75471;HTU21D;64051;46.320;48.028;2023-03-31T02:42:15;3.55;67.30
75471;HTU21D;64051;46.320;48.028;2023-03-31T02:44:41;3.54;67.45
75471;HTU21D;64051;46.320;48.028;2023-03-31T02:47:13;3.53;67.28
75471;HTU21D;64051;46.320;48.028;2023-03-31T02:49:47;3.52;67.33
75471;HTU21D;64051;46.320;48.028;2023-03-31T03:03:40;3.44;67.52
75471;HTU21D;64051;46.320;48.028;2023-03-31T03:12:15;3.45;67.68
75471;HTU21D;64051;46.320;48.028;2023-03-31T03:15:02;3.49;67.43
75471;HTU21D;64051;46.320;48.028;2023-03-31T03:17:36;3.54;67.45
75471;HTU21D;64051;46.320;48.028;2023-03-31T03:20:04;3.60;67.30
75471;HTU21D;64051;46.320;48.028;2023-03-31T03:22:34;3.64;67.31
75471;HTU21D;64051;46.320;48.028;2023-03-31T03:25:00;3.71;67.27
75471;HTU21D;64051;46.320;48.028;2023-03-31T03:27:26;3.77;67.19
75471;HTU21D;64051;46.320;48.028;2023-03-31T03:29:52;3.84;67.17
75471;HTU21D;64051;46.320;48.028;2023-03-31T03:32:18;3.89;66.97
75471;HTU21D;64051;46.320;48.028;2023-03-31T03:34:44;3.93;66.77
75471;HTU21D;64051;46.320;48.028;2023-03-31T03:37:10;3.99;66.91
75471;HTU21D;64051;46.320;48.028;2023-03-31T03:39:36;4.03;66.67
75471;HTU21D;64051;46.320;48.028;2023-03-31T03:42:02;4.05;66.65
75471;HTU21D;64051;46.320;48.028;2023-03-31T03:44:28;4.09;66.71
75471;HTU21D;64051;46.320;48.028;2023-03-31T03:46:54;4.13;66.49
75471;HTU21D;64051;46.320;48.028;2023-03-31T03:49:20;4.14;66.40
75471;HTU21D;64051;46.320;48.028;2023-03-31T03:51:46;4.16;66.53
75471;HTU21D;64051;46.320;48.028;2023-03-31T03:54:12;4.21;66.54
75471;HTU21D;64051;46.320;48.028;2023-03-31T03:56:38;4.22;66.30
75471;HTU21D;64051;46.320;48.028;2023-03-31T03:59:04;4.20;66.30
75471;HTU21D;64051;46.320;48.028;2023-03-31T04:01:29;4.20;66.27
75471;HTU21D;64051;46.320;48.028;2023-03-31T04:03:56;4.19;66.22
75471;HTU21D;64051;46.320;48.028;2023-03-31T04:06:22;4.21;66.32
75471;HTU21D;64051;46.320;48.028;2023-03-31T04:08:48;4.26;66.21
75471;HTU21D;64051;46.320;48.028;2023-03-31T04:11:17;4.29;66.27
75471;HTU21D;64051;46.320;48.028;2023-03-31T04:13:44;4.38;66.27
75471;HTU21D;64051;46.320;48.028;2023-03-31T04:16:10;4.47;66.31
75471;HTU21D;64051;46.320;48.028;2023-03-31T04:18:37;4.56;66.24
75471;HTU21D;64051;46.320;48.028;2023-03-31T04:21:12;4.69;66.14
75471;HTU21D;64051;46.320;48.028;2023-03-31T04:23:41;4.79;65.91
75471;HTU21D;64051;46.320;48.028;2023-03-31T04:26:16;4.90;65.82
75471;HTU21D;64051;46.320;48.028;2023-03-31T04:28:43;5.00;65.85
75471;HTU21D;64051;46.320;48.028;2023-03-31T04:31:15;5.12;65.81
75471;HTU21D;64051;46.320;48.028;2023-03-31T04:33:54;5.24;65.67
75471;HTU21D;64051;46.320;48.028;2023-03-31T04:36:20;5.34;65.59
75471;HTU21D;64051;46.320;48.028;2023-03-31T04:38:48;5.46;65.44
75471;HTU21D;64051;46.320;48.028;2023-03-31T04:41:24;5.56;65.11
75471;HTU21D;64051;46.320;48.028;2023-03-31T04:43:52;5.63;64.98
75471;HTU21D;64051;46.320;48.028;2023-03-31T04:46:22;5.66;64.79
75471;HTU21D;64051;46.320;48.028;2023-03-31T04:48:49;5.68;64.76
75471;HTU21D;64051;46.320;48.028;2023-03-31T04:51:15;5.70;64.59
75471;HTU21D;64051;46.320;48.028;2023-03-31T04:53:41;5.72;64.62
75471;HTU21D;64051;46.320;48.028;2023-03-31T04:56:07;5.76;64.53
75471;HTU21D;64051;46.320;48.028;2023-03-31T04:58:33;5.78;64.42
75471;HTU21D;64051;46.320;48.028;2023-03-31T05:00:58;5.82;64.48
75471;HTU21D;64051;46.320;48.028;2023-03-31T05:03:24;5.87;64.41
75471;HTU21D;64051;46.320;48.028;2023-03-31T05:05:53;5.95;64.48
75471;HTU21D;64051;46.320;48.028;2023-03-31T05:08:22;6.02;64.11
75471;HTU21D;64051;46.320;48.028;2023-03-31T05:10:48;6.11;64.24
75471;HTU21D;64051;46.320;48.028;2023-03-31T05:13:14;6.21;64.05
75471;HTU21D;64051;46.320;48.028;2023-03-31T05:15:43;6.30;63.92
75471;HTU21D;64051;46.320;48.028;2023-03-31T05:18:12;6.40;63.56
75471;HTU21D;64051;46.320;48.028;2023-03-31T05:20:44;6.48;63.44
75471;HTU21D;64051;46.320;48.028;2023-03-31T05:23:11;6.60;63.64
75471;HTU21D;64051;46.320;48.028;2023-03-31T05:25:37;6.74;63.42
75471;HTU21D;64051;46.320;48.028;2023-03-31T05:28:03;6.87;63.14
75471;HTU21D;64051;46.320;48.028;2023-03-31T05:30:29;6.97;63.24
75471;HTU21D;64051;46.320;48.028;2023-03-31T05:32:55;7.02;62.63
75471;HTU21D;64051;46.320;48.028;2023-03-31T05:35:21;6.97;62.50
75471;HTU21D;64051;46.320;48.028;2023-03-31T05:37:47;6.93;62.59
75471;HTU21D;64051;46.320;48.028;2023-03-31T05:40:13;6.93;62.60
75471;HTU21D;64051;46.320;48.028;2023-03-31T05:42:40;6.96;62.63
75471;HTU21D;64051;46.320;48.028;2023-03-31T05:45:08;6.98;62.19
75471;HTU21D;64051;46.320;48.028;2023-03-31T05:47:34;7.00;62.26
75471;HTU21D;64051;46.320;48.028;2023-03-31T05:50:01;7.03;62.19
75471;HTU21D;64051;46.320;48.028;2023-03-31T05:52:32;7.08;62.24
75471;HTU21D;64051;46.320;48.028;2023-03-31T05:54:58;7.11;62.37
75471;HTU21D;64051;46.320;48.028;2023-03-31T05:57:26;7.19;62.39
75471;HTU21D;64051;46.320;48.028;2023-03-31T05:59:52;7.27;62.13
75471;HTU21D;64051;46.320;48.028;2023-03-31T06:02:21;7.35;62.34
75471;HTU21D;64051;46.320;48.028;2023-03-31T06:04:47;7.46;61.96
75471;HTU21D;64051;46.320;48.028;2023-03-31T06:07:12;7.57;61.96
75471;HTU21D;64051;46.320;48.028;2023-03-31T06:09:47;7.71;61.96
75471;HTU21D;64051;46.320;48.028;2023-03-31T06:12:13;7.87;61.95
75471;HTU21D;64051;46.320;48.028;2023-03-31T06:14:40;7.99;61.37
75471;HTU21D;64051;46.320;48.028;2023-03-31T06:17:06;8.09;61.44
75471;HTU21D;64051;46.320;48.028;2023-03-31T06:19:35;8.23;60.91
75471;HTU21D;64051;46.320;48.028;2023-03-31T06:22:01;8.31;60.84
75471;HTU21D;64051;46.320;48.028;2023-03-31T06:24:27;8.39;60.20
75471;HTU21D;64051;46.320;48.028;2023-03-31T06:26:53;8.51;60.30
75471;HTU21D;64051;46.320;48.028;2023-03-31T06:29:26;8.59;59.86
75471;HTU21D;64051;46.320;48.028;2023-03-31T06:31:52;8.65;59.80
75471;HTU21D;64051;46.320;48.028;2023-03-31T06:34:18;8.67;59.42
75471;HTU21D;64051;46.320;48.028;2023-03-31T06:36:44;8.70;59.19
75471;HTU21D;64051;46.320;48.028;2023-03-31T06:39:10;8.73;59.04
75471;HTU21D;64051;46.320;48.028;2023-03-31T06:41:36;8.76;58.94
75471;HTU21D;64051;46.320;48.028;2023-03-31T06:44:18;8.79;58.96
75471;HTU21D;64051;46.320;48.028;2023-03-31T06:46:50;8.77;58.22
75471;HTU21D;64051;46.320;48.028;2023-03-31T06:49:16;8.73;58.24
75471;HTU21D;64051;46.320;48.028;2023-03-31T06:51:42;8.61;57.96
75471;HTU21D;64051;46.320;48.028;2023-03-31T06:54:13;8.52;57.85
75471;HTU21D;64051;46.320;48.028;2023-03-31T06:56:39;8.44;57.79
75471;HTU21D;64051;46.320;48.028;2023-03-31T06:59:05;8.39;57.96
75471;HTU21D;64051;46.320;48.028;2023-03-31T07:01:31;8.39;58.02
75471;HTU21D;64051;46.320;48.028;2023-03-31T07:04:02;8.51;58.06
75471;HTU21D;64051;46.320;48.028;2023-03-31T07:06:28;8.68;57.85
75471;HTU21D;64051;46.320;48.028;2023-03-31T07:08:54;8.86;57.62
75471;HTU21D;64051;46.320;48.028;2023-03-31T07:11:22;9.06;57.55
75471;HTU21D;64051;46.320;48.028;2023-03-31T07:13:48;9.24;57.19
75471;HTU21D;64051;46.320;48.028;2023-03-31T07:16:14;9.42;57.34
75471;HTU21D;64051;46.320;48.028;2023-03-31T07:18:40;9.67;57.39
75471;HTU21D;64051;46.320;48.028;2023-03-31T07:21:09;9.93;56.83
75471;HTU21D;64051;46.320;48.028;2023-03-31T07:23:38;10.21;55.85
75471;HTU21D;64051;46.320;48.028;2023-03-31T07:26:07;10.37;55.39
75471;HTU21D;64051;46.320;48.028;2023-03-31T07:28:33;10.43;54.87
75471;HTU21D;64051;46.320;48.028;2023-03-31T07:30:59;10.51;54.46
75471;HTU21D;64051;46.320;48.028;2023-03-31T07:33:28;10.53;53.78
75471;HTU21D;64051;46.320;48.028;2023-03-31T07:35:54;10.56;53.81
75471;HTU21D;64051;46.320;48.028;2023-03-31T07:38:20;10.67;53.68
75471;HTU21D;64051;46.320;48.028;2023-03-31T07:40:46;10.80;53.31
75471;HTU21D;64051;46.320;48.028;2023-03-31T07:43:12;10.94;52.98
75471;HTU21D;64051;46.320;48.028;2023-03-31T07:45:39;10.97;51.50
75471;HTU21D;64051;46.320;48.028;2023-03-31T07:48:05;10.92;51.25
75471;HTU21D;64051;46.320;48.028;2023-03-31T07:50:34;10.89;51.04
75471;HTU21D;64051;46.320;48.028;2023-03-31T07:53:13;10.93;50.90
75471;HTU21D;64051;46.320;48.028;2023-03-31T07:55:40;10.98;50.84
75471;HTU21D;64051;46.320;48.028;2023-03-31T07:58:06;10.99;50.44
75471;HTU21D;64051;46.320;48.028;2023-03-31T08:00:32;10.95;49.62
75471;HTU21D;64051;46.320;48.028;2023-03-31T08:03:04;10.96;49.73
75471;HTU21D;64051;46.320;48.028;2023-03-31T08:05:30;10.95;49.67
75471;HTU21D;64051;46.320;48.028;2023-03-31T08:08:02;10.95;48.80
75471;HTU21D;64051;46.320;48.028;2023-03-31T08:10:28;10.95;49.45
75471;HTU21D;64051;46.320;48.028;2023-03-31T08:12:54;11.08;49.42
75471;HTU21D;64051;46.320;48.028;2023-03-31T08:15:20;11.22;49.45
75471;HTU21D;64051;46.320;48.028;2023-03-31T08:17:55;11.34;48.55
75471;HTU21D;64051;46.320;48.028;2023-03-31T08:20:21;11.39;48.54
75471;HTU21D;64051;46.320;48.028;2023-03-31T08:22:46;11.44;48.57
75471;HTU21D;64051;46.320;48.028;2023-03-31T08:25:12;11.53;48.21
75471;HTU21D;64051;46.320;48.028;2023-03-31T08:27:39;11.55;46.96
75471;HTU21D;64051;46.320;48.028;2023-03-31T08:30:11;11.57;47.54
75471;HTU21D;64051;46.320;48.028;2023-03-31T08:32:40;11.67;46.02
75471;HTU21D;64051;46.320;48.028;2023-03-31T08:35:09;11.66;46.37
75471;HTU21D;64051;46.320;48.028;2023-03-31T08:37:36;11.64;46.61
75471;HTU21D;64051;46.320;48.028;2023-03-31T08:40:03;11.66;46.28
75471;HTU21D;64051;46.320;48.028;2023-03-31T08:42:50;11.75;45.66
75471;HTU21D;64051;46.320;48.028;2023-03-31T08:45:33;11.81;44.72
75471;HTU21D;64051;46.320;48.028;2023-03-31T08:50:46;11.93;46.10
75471;HTU21D;64051;46.320;48.028;2023-03-31T08:53:32;12.14;46.22
75471;HTU21D;64051;46.320;48.028;2023-03-31T08:56:03;12.30;45.72
75471;HTU21D;64051;46.320;48.028;2023-03-31T08:58:41;12.53;45.78
75471;HTU21D;64051;46.320;48.028;2023-03-31T09:01:41;12.81;42.29
75471;HTU21D;64051;46.320;48.028;2023-03-31T09:13:23;13.26;41.23
75471;HTU21D;64051;46.320;48.028;2023-03-31T09:18:35;13.18;42.99
75471;HTU21D;64051;46.320;48.028;2023-03-31T09:21:33;13.29;41.97
75471;HTU21D;64051;46.320;48.028;2023-03-31T09:24:44;13.41;43.03
75471;HTU21D;64051;46.320;48.028;2023-03-31T09:27:05;13.52;36.26
75471;HTU21D;64051;46.320;48.028;2023-03-31T09:30:12;13.59;41.38
75471;HTU21D;64051;46.320;48.028;2023-03-31T09:32:40;13.65;42.13
75471;HTU21D;64051;46.320;48.028;2023-03-31T09:35:20;13.74;35.93
75471;HTU21D;64051;46.320;48.028;2023-03-31T09:37:48;13.77;41.45
75471;HTU21D;64051;46.320;48.028;2023-03-31T09:40:19;13.84;41.23
75471;HTU21D;64051;46.320;48.028;2023-03-31T09:42:58;13.91;41.35
75471;HTU21D;64051;46.320;48.028;2023-03-31T09:45:24;14.00;38.45
75471;HTU21D;64051;46.320;48.028;2023-03-31T09:47:53;14.00;40.62
75471;HTU21D;64051;46.320;48.028;2023-03-31T09:50:25;13.85;40.84
75471;HTU21D;64051;46.320;48.028;2023-03-31T09:52:54;13.69;40.68
75471;HTU21D;64051;46.320;48.028;2023-03-31T09:55:43;13.74;39.31
75471;HTU21D;64051;46.320;48.028;2023-03-31T09:58:15;13.75;40.50
75471;HTU21D;64051;46.320;48.028;2023-03-31T10:00:54;13.82;40.59
75471;HTU21D;64051;46.320;48.028;2023-03-31T10:03:23;13.91;40.71
75471;HTU21D;64051;46.320;48.028;2023-03-31T10:05:51;13.97;39.97
75471;HTU21D;64051;46.320;48.028;2023-03-31T10:11:28;13.95;40.58
75471;HTU21D;64051;46.320;48.028;2023-03-31T10:14:04;13.98;40.39
75471;HTU21D;64051;46.320;48.028;2023-03-31T10:16:44;13.99;39.68
75471;HTU21D;64051;46.320;48.028;2023-03-31T10:19:28;14.01;39.17
75471;HTU21D;64051;46.320;48.028;2023-03-31T10:24:44;13.99;37.31
75471;HTU21D;64051;46.320;48.028;2023-03-31T10:27:23;13.88;39.39
75471;HTU21D;64051;46.320;48.028;2023-03-31T10:29:54;13.70;40.01
75471;HTU21D;64051;46.320;48.028;2023-03-31T10:32:33;13.58;40.03
75471;HTU21D;64051;46.320;48.028;2023-03-31T10:35:25;13.47;40.00
75471;HTU21D;64051;46.320;48.028;2023-03-31T10:37:58;13.44;40.35
75471;HTU21D;64051;46.320;48.028;2023-03-31T10:40:28;13.36;40.33
75471;HTU21D;64051;46.320;48.028;2023-03-31T10:43:15;13.27;40.02
75471;HTU21D;64051;46.320;48.028;2023-03-31T10:45:47;13.23;40.45
75471;HTU21D;64051;46.320;48.028;2023-03-31T10:48:30;13.24;40.61
75471;HTU21D;64051;46.320;48.028;2023-03-31T10:51:05;13.38;40.23
75471;HTU21D;64051;46.320;48.028;2023-03-31T10:53:49;13.54;41.00
75471;HTU21D;64051;46.320;48.028;2023-03-31T10:56:35;13.76;40.35
75471;HTU21D;64051;46.320;48.028;2023-03-31T11:01:49;13.94;39.85
75471;HTU21D;64051;46.320;48.028;2023-03-31T11:04:46;14.07;39.39
75471;HTU21D;64051;46.320;48.028;2023-03-31T11:07:42;14.26;37.66
75471;HTU21D;64051;46.320;48.028;2023-03-31T11:13:47;14.57;38.53
75471;HTU21D;64051;46.320;48.028;2023-03-31T11:16:26;14.57;38.51
75471;HTU21D;64051;46.320;48.028;2023-03-31T11:21:36;14.63;38.93
75471;HTU21D;64051;46.320;48.028;2023-03-31T11:33:02;14.80;37.89
75471;HTU21D;64051;46.320;48.028;2023-03-31T11:35:57;14.74;38.36
75471;HTU21D;64051;46.320;48.028;2023-03-31T11:38:57;14.75;37.52
75471;HTU21D;64051;46.320;48.028;2023-03-31T11:41:28;14.79;38.65
75471;HTU21D;64051;46.320;48.028;2023-03-31T11:44:03;14.79;38.36
75471;HTU21D;64051;46.320;48.028;2023-03-31T11:46:59;14.67;36.96
75471;HTU21D;64051;46.320;48.028;2023-03-31T11:49:29;14.53;37.99
75471;HTU21D;64051;46.320;48.028;2023-03-31T11:52:27;14.55;34.79
75471;HTU21D;64051;46.320;48.028;2023-03-31T11:55:11;14.55;37.96
75471;HTU21D;64051;46.320;48.028;2023-03-31T12:00:52;14.56;37.67
75471;HTU21D;64051;46.320;48.028;2023-03-31T12:04:02;14.65;34.68
75471;HTU21D;64051;46.320;48.028;2023-03-31T12:06:39;14.69;37.70
75471;HTU21D;64051;46.320;48.028;2023-03-31T12:14:30;14.81;34.91
75471;HTU21D;64051;46.320;48.028;2023-03-31T12:17:10;14.88;36.56
75471;HTU21D;64051;46.320;48.028;2023-03-31T12:19:49;14.85;36.30
75471;HTU21D;64051;46.320;48.028;2023-03-31T12:22:32;14.84;36.95
75471;HTU21D;64051;46.320;48.028;2023-03-31T12:25:01;14.87;37.45
75471;HTU21D;64051;46.320;48.028;2023-03-31T12:27:43;14.89;36.70
75471;HTU21D;64051;46.320;48.028;2023-03-31T12:30:30;14.84;35.26
75471;HTU21D;64051;46.320;48.028;2023-03-31T12:39:02;14.77;37.11
75471;HTU21D;64051;46.320;48.028;2023-03-31T12:47:21;14.69;34.73
75471;HTU21D;64051;46.320;48.028;2023-03-31T12:50:12;14.65;36.25
75471;HTU21D;64051;46.320;48.028;2023-03-31T12:55:40;14.49;36.24
75471;HTU21D;64051;46.320;48.028;2023-03-31T13:01:15;14.32;35.12
75471;HTU21D;64051;46.320;48.028;2023-03-31T13:11:48;14.15;36.54
75471;HTU21D;64051;46.320;48.028;2023-03-31T13:14:21;14.08;36.36
75471;HTU21D;64051;46.320;48.028;2023-03-31T13:16:48;14.00;36.78
75471;HTU21D;64051;46.320;48.028;2023-03-31T13:19:31;13.93;35.64
75471;HTU21D;64051;46.320;48.028;2023-03-31T13:22:31;13.85;36.30
75471;HTU21D;64051;46.320;48.028;2023-03-31T13:28:03;13.76;37.33
75471;HTU21D;64051;46.320;48.028;2023-03-31T13:35:36;13.53;37.21
75471;HTU21D;64051;46.320;48.028;2023-03-31T13:38:35;13.46;36.81
75471;HTU21D;64051;46.320;48.028;2023-03-31T13:41:22;13.37;36.73
75471;HTU21D;64051;46.320;48.028;2023-03-31T13:43:57;13.24;36.47
75471;HTU21D;64051;46.320;48.028;2023-03-31T13:52:48;12.99;37.49
75471;HTU21D;64051;46.320;48.028;2023-03-31T13:55:35;12.94;37.44
75471;HTU21D;64051;46.320;48.028;2023-03-31T14:06:52;12.67;36.43
75471;HTU21D;64051;46.320;48.028;2023-03-31T14:09:26;12.60;37.00
75471;HTU21D;64051;46.320;48.028;2023-03-31T14:12:19;12.50;36.92
75471;HTU21D;64051;46.320;48.028;2023-03-31T14:14:45;12.46;37.42
75471;HTU21D;64051;46.320;48.028;2023-03-31T14:17:11;12.43;37.47
75471;HTU21D;64051;46.320;48.028;2023-03-31T14:25:56;12.31;37.74
75471;HTU21D;64051;46.320;48.028;2023-03-31T14:37:13;12.06;38.08
75471;HTU21D;64051;46.320;48.028;2023-03-31T14:39:49;12.03;38.14
75471;HTU21D;64051;46.320;48.028;2023-03-31T14:42:37;11.97;37.86
75471;HTU21D;64051;46.320;48.028;2023-03-31T14:45:13;11.93;38.22
75471;HTU21D;64051;46.320;48.028;2023-03-31T14:47:40;11.88;38.37
75471;HTU21D;64051;46.320;48.028;2023-03-31T14:50:17;11.85;38.17
75471;HTU21D;64051;46.320;48.028;2023-03-31T14:52:53;11.83;38.33
75471;HTU21D;64051;46.320;48.028;2023-03-31T14:55:25;11.78;38.36
75471;HTU21D;64051;46.320;48.028;2023-03-31T14:57:53;11.74;38.48
75471;HTU21D;64051;46.320;48.028;2023-03-31T15:00:30;11.72;38.30
75471;HTU21D;64051;46.320;48.028;2023-03-31T15:03:06;11.68;38.36
75471;HTU21D;64051;46.320;48.028;2023-03-31T15:05:37;11.68;38.24
75471;HTU21D;64051;46.320;48.028;2023-03-31T15:08:11;11.66;38.36
75471;HTU21D;64051;46.320;48.028;2023-03-31T15:10:43;11.63;38.40
75471;HTU21D;64051;46.320;48.028;2023-03-31T15:15:55;11.59;38.56
75471;HTU21D;64051;46.320;48.028;2023-03-31T15:18:30;11.57;38.51
75471;HTU21D;64051;46.320;48.028;2023-03-31T15:20:56;11.54;38.68
75471;HTU21D;64051;46.320;48.028;2023-03-31T15:23:26;11.51;38.71
75471;HTU21D;64051;46.320;48.028;2023-03-31T15:25:58;11.48;38.78
75471;HTU21D;64051;46.320;48.028;2023-03-31T15:28:30;11.44;38.79
75471;HTU21D;64051;46.320;48.028;2023-03-31T15:31:05;11.41;38.82
75471;HTU21D;64051;46.320;48.028;2023-03-31T15:33:35;11.37;38.88
75471;HTU21D;64051;46.320;48.028;2023-03-31T15:36:10;11.31;39.01
75471;HTU21D;64051;46.320;48.028;2023-03-31T15:38:39;11.26;39.15
75471;HTU21D;64051;46.320;48.028;2023-03-31T15:41:18;11.23;39.16
75471;HTU21D;64051;46.320;48.028;2023-03-31T15:43:48;11.17;39.20
75471;HTU21D;64051;46.320;48.028;2023-03-31T15:49:25;11.08;39.40
75471;HTU21D;64051;46.320;48.028;2023-03-31T15:51:51;11.05;39.64
75471;HTU21D;64051;46.320;48.028;2023-03-31T15:54:35;11.05;39.65
75471;HTU21D;64051;46.320;48.028;2023-03-31T15:57:14;11.04;39.55
75471;HTU21D;64051;46.320;48.028;2023-03-31T15:59:50;11.04;39.65
75471;HTU21D;64051;46.320;48.028;2023-03-31T16:02:25;11.02;39.72
75471;HTU21D;64051;46.320;48.028;2023-03-31T16:04:57;11.01;39.68
75471;HTU21D;64051;46.320;48.028;2023-03-31T16:07:32;10.99;39.75
75471;HTU21D;64051;46.320;48.028;2023-03-31T16:10:06;10.95;39.80
75471;HTU21D;64051;46.320;48.028;2023-03-31T16:12:41;10.94;39.70
75471;HTU21D;64051;46.320;48.028;2023-03-31T16:15:17;10.92;39.99
75471;HTU21D;64051;46.320;48.028;2023-03-31T16:18:01;10.86;40.04
75471;HTU21D;64051;46.320;48.028;2023-03-31T16:20:42;10.83;40.07
75471;HTU21D;64051;46.320;48.028;2023-03-31T16:23:15;10.79;40.22
75471;HTU21D;64051;46.320;48.028;2023-03-31T16:25:45;10.74;40.36
75471;HTU21D;64051;46.320;48.028;2023-03-31T16:28:32;10.69;40.41
75471;HTU21D;64051;46.320;48.028;2023-03-31T16:30:58;10.64;40.57
75471;HTU21D;64051;46.320;48.028;2023-03-31T16:33:28;10.58;40.65
75471;HTU21D;64051;46.320;48.028;2023-03-31T16:36:06;10.53;40.69
75471;HTU21D;64051;46.320;48.028;2023-03-31T16:39:02;10.49;40.71
75471;HTU21D;64051;46.320;48.028;2023-03-31T16:41:35;10.41;40.83
75471;HTU21D;64051;46.320;48.028;2023-03-31T16:44:08;10.37;40.94
75471;HTU21D;64051;46.320;48.028;2023-03-31T16:46:35;10.34;41.10
75471;HTU21D;64051;46.320;48.028;2023-03-31T16:49:01;10.28;41.21
75471;HTU21D;64051;46.320;48.028;2023-03-31T16:51:33;10.26;41.31
75471;HTU21D;64051;46.320;48.028;2023-03-31T16:54:00;10.23;41.45
75471;HTU21D;64051;46.320;48.028;2023-03-31T16:56:29;10.21;41.58
75471;HTU21D;64051;46.320;48.028;2023-03-31T16:58:58;10.19;41.71
75471;HTU21D;64051;46.320;48.028;2023-03-31T17:01:26;10.12;41.83
75471;HTU21D;64051;46.320;48.028;2023-03-31T17:03:52;10.08;41.95
75471;HTU21D;64051;46.320;48.028;2023-03-31T17:06:26;10.03;42.07
75471;HTU21D;64051;46.320;48.028;2023-03-31T17:08:58;9.97;42.15
75471;HTU21D;64051;46.320;48.028;2023-03-31T17:11:27;9.90;42.23
75471;HTU21D;64051;46.320;48.028;2023-03-31T17:14:04;9.88;42.32
75471;HTU21D;64051;46.320;48.028;2023-03-31T17:16:42;9.81;42.42
75471;HTU21D;64051;46.320;48.028;2023-03-31T17:19:08;9.76;42.43
75471;HTU21D;64051;46.320;48.028;2023-03-31T17:21:37;9.70;42.46
75471;HTU21D;64051;46.320;48.028;2023-03-31T17:24:06;9.67;42.61
75471;HTU21D;64051;46.320;48.028;2023-03-31T17:26:43;9.64;42.71
75471;HTU21D;64051;46.320;48.028;2023-03-31T17:29:17;9.60;42.78
75471;HTU21D;64051;46.320;48.028;2023-03-31T17:31:43;9.55;42.87
75471;HTU21D;64051;46.320;48.028;2023-03-31T17:34:12;9.54;42.97
75471;HTU21D;64051;46.320;48.028;2023-03-31T17:36:41;9.52;43.12
75471;HTU21D;64051;46.320;48.028;2023-03-31T17:39:12;9.51;43.23
75471;HTU21D;64051;46.320;48.028;2023-03-31T17:41:38;9.47;43.30
75471;HTU21D;64051;46.320;48.028;2023-03-31T17:44:04;9.44;43.38
75471;HTU21D;64051;46.320;48.028;2023-03-31T17:46:36;9.39;43.48
75471;HTU21D;64051;46.320;48.028;2023-03-31T17:49:08;9.36;43.54
75471;HTU21D;64051;46.320;48.028;2023-03-31T17:51:35;9.32;43.61
75471;HTU21D;64051;46.320;48.028;2023-03-31T17:54:01;9.27;43.71
75471;HTU21D;64051;46.320;48.028;2023-03-31T17:56:52;9.24;43.78
75471;HTU21D;64051;46.320;48.028;2023-03-31T17:59:18;9.19;43.92
75471;HTU21D;64051;46.320;48.028;2023-03-31T18:01:45;9.18;44.09
75471;HTU21D;64051;46.320;48.028;2023-03-31T18:04:17;9.15;44.24
75471;HTU21D;64051;46.320;48.028;2023-03-31T18:06:55;9.11;44.33
75471;HTU21D;64051;46.320;48.028;2023-03-31T18:09:23;9.06;44.41
75471;HTU21D;64051;46.320;48.028;2023-03-31T18:11:52;9.03;44.49
75471;HTU21D;64051;46.320;48.028;2023-03-31T18:14:21;9.00;44.60
75471;HTU21D;64051;46.320;48.028;2023-03-31T18:16:47;8.96;44.69
75471;HTU21D;64051;46.320;48.028;2023-03-31T18:19:16;8.93;44.79
75471;HTU21D;64051;46.320;48.028;2023-03-31T18:21:45;8.91;44.91
75471;HTU21D;64051;46.320;48.028;2023-03-31T18:24:17;8.90;45.03
75471;HTU21D;64051;46.320;48.028;2023-03-31T18:26:45;8.88;45.09
75471;HTU21D;64051;46.320;48.028;2023-03-31T18:29:14;8.87;45.32